Time;durP1;ratioP1;P1;durP2;ratioP2;P2;SDS_P1;SDS_P2;PMS_P1;PMS_P2;Temp;Humidity;BMP_temperature;BMP_pressure;BME280_temperature;BME280_humidity;BME280_pressure;Samples;Min_cycle;Max_cycle;Signal;HPM_P1;HPM_P2
2022/12/25 00:02:06;;;;;;;;;;;;;;;17.47;38.97;100887.15;102215;1329;62162;-81
2022/12/25 00:04:31;;;;;;;;;;;;;;;17.46;38.90;100899.09;102130;1333;62250;-81
2022/12/25 00:06:58;;;;;;;;;;;;;;;17.46;38.93;100905.53;102144;1326;62221;-81
2022/12/25 00:09:23;;;;;;;;;;;;;;;17.46;38.89;100920.85;102163;1330;62117;-81
2022/12/25 00:11:49;;;;;;;;;;;;;;;17.46;38.99;100923.52;102177;1329;62205;-81
2022/12/25 00:14:14;;;;;;;;;;;;;;;17.46;38.88;100923.52;102116;1327;62181;-81
2022/12/25 00:16:40;;;;;;;;;;;;;;;17.45;39.04;100923.02;102148;1326;62096;-81
2022/12/25 00:19:05;;;;;;;;;;;;;;;17.45;38.95;100923.71;102141;1333;62091;-81
2022/12/25 00:21:32;;;;;;;;;;;;;;;17.45;38.96;100931.19;102201;1317;60809;-81
2022/12/25 00:23:57;;;;;;;;;;;;;;;17.45;38.85;100934.57;102167;1327;62210;-81
2022/12/25 00:26:23;;;;;;;;;;;;;;;17.45;38.95;100941.36;102127;1324;62128;-81
2022/12/25 00:28:52;;;;;;;;;;;;;;;17.45;38.96;100941.68;102161;1330;60920;-81
2022/12/25 00:31:18;;;;;;;;;;;;;;;17.45;38.95;100945.81;102178;1326;62008;-81
2022/12/25 00:33:44;;;;;;;;;;;;;;;17.44;38.90;100946.36;102123;1329;62226;-81
2022/12/25 00:36:10;;;;;;;;;;;;;;;17.44;38.91;100948.32;102164;1329;62124;-81
2022/12/25 00:38:36;;;;;;;;;;;;;;;17.44;38.92;100954.73;102175;1333;62236;-81
2022/12/25 00:41:05;;;;;;;;;;;;;;;17.44;38.88;100952.95;102171;1329;62107;-81
2022/12/25 00:43:30;;;;;;;;;;;;;;;17.44;38.94;100946.56;102136;1329;59441;-81
2022/12/25 00:45:56;;;;;;;;;;;;;;;17.43;38.99;100946.58;102149;1329;60911;-81
2022/12/25 00:48:22;;;;;;;;;;;;;;;17.43;38.97;100949.42;102221;1330;62121;-81
2022/12/25 00:50:47;;;;;;;;;;;;;;;17.43;38.88;100946.77;102212;1329;62669;-81
2022/12/25 00:53:13;;;;;;;;;;;;;;;17.43;38.81;100950.33;102193;1326;62153;-81
2022/12/25 00:55:38;;;;;;;;;;;;;;;17.43;38.88;100947.32;102173;1317;72218;-81
2022/12/25 00:58:03;;;;;;;;;;;;;;;17.43;38.87;100946.60;102151;1330;62137;-81
2022/12/25 01:00:29;;;;;;;;;;;;;;;17.43;39.00;100945.73;102158;1326;60148;-81
2022/12/25 01:02:54;;;;;;;;;;;;;;;17.43;38.90;100943.59;102236;1329;62114;-81
2022/12/25 01:05:20;;;;;;;;;;;;;;;17.42;38.94;100938.29;102207;1330;62114;-81
2022/12/25 01:07:45;;;;;;;;;;;;;;;17.42;38.85;100937.41;102134;1329;62082;-81
2022/12/25 01:10:23;;;;;;;;;;;;;;;17.41;38.98;100936.54;102162;1325;62195;-81
2022/12/25 01:12:48;;;;;;;;;;;;;;;17.42;38.84;100942.92;102183;1330;60763;-81
2022/12/25 01:15:14;;;;;;;;;;;;;;;17.41;38.98;100944.95;102244;1326;62198;-81
2022/12/25 01:17:40;;;;;;;;;;;;;;;17.42;39.00;100950.05;102165;1333;62035;-81
2022/12/25 01:20:05;;;;;;;;;;;;;;;17.41;39.02;100955.24;102125;1326;62321;-81
2022/12/25 01:22:31;;;;;;;;;;;;;;;17.41;38.99;100956.13;102173;1326;62100;-81
2022/12/25 01:24:56;;;;;;;;;;;;;;;17.41;38.94;100955.42;102252;1329;62126;-81
2022/12/25 01:27:22;;;;;;;;;;;;;;;17.40;38.97;100959.20;102161;1329;62092;-81
2022/12/25 01:29:47;;;;;;;;;;;;;;;17.40;38.91;100958.49;102144;1325;62127;-81
2022/12/25 01:32:12;;;;;;;;;;;;;;;17.40;38.99;100955.98;102140;1329;62285;-81
2022/12/25 01:34:38;;;;;;;;;;;;;;;17.40;38.92;100954.59;102175;1332;62279;-81
2022/12/25 01:37:03;;;;;;;;;;;;;;;17.39;38.95;100955.33;102173;1329;61998;-81
2022/12/25 01:39:29;;;;;;;;;;;;;;;17.39;38.90;100955.01;102182;1314;62124;-81
2022/12/25 01:41:54;;;;;;;;;;;;;;;17.39;38.95;100953.21;102184;1323;62157;-81
2022/12/25 01:44:35;;;;;;;;;;;;;;;17.39;38.98;100955.35;102143;1332;62089;-81
2022/12/25 01:47:03;;;;;;;;;;;;;;;17.39;38.86;100961.06;102228;1329;62124;-81
2022/12/25 01:49:29;;;;;;;;;;;;;;;17.39;39.04;100965.86;102237;1329;62103;-81
2022/12/25 01:51:56;;;;;;;;;;;;;;;17.39;38.95;100959.82;102171;1322;60914;-81
2022/12/25 01:54:25;;;;;;;;;;;;;;;17.39;38.94;100960.90;102153;1326;62153;-81
2022/12/25 01:56:51;;;;;;;;;;;;;;;17.38;39.00;100960.37;102154;1325;62019;-81
2022/12/25 01:59:17;;;;;;;;;;;;;;;17.38;38.98;100956.30;102157;1326;62325;-82
2022/12/25 02:01:43;;;;;;;;;;;;;;;17.38;38.98;100959.84;102159;1332;61972;-82
2022/12/25 02:04:12;;;;;;;;;;;;;;;17.37;38.92;100962.91;102156;1324;62287;-82
2022/12/25 02:06:37;;;;;;;;;;;;;;;17.38;38.87;100962.19;102077;1333;62272;-82
2022/12/25 02:09:03;;;;;;;;;;;;;;;17.38;38.85;100966.64;102137;1326;62192;-82
2022/12/25 02:14:12;;;;;;;;;;;;;;;17.37;38.94;100955.82;102136;1332;75241;-82
2022/12/25 02:16:38;;;;;;;;;;;;;;;17.37;38.92;100952.98;102159;1332;60097;-82
2022/12/25 02:19:17;;;;;;;;;;;;;;;17.37;38.89;100954.77;102144;1332;61978;-82
2022/12/25 02:22:01;;;;;;;;;;;;;;;17.37;38.88;100957.98;102142;1333;73596;-81
2022/12/25 02:24:27;;;;;;;;;;;;;;;17.36;39.00;100959.77;102150;1326;75446;-81
2022/12/25 02:26:58;;;;;;;;;;;;;;;17.36;38.93;100961.55;102131;1322;62093;-81
2022/12/25 02:29:25;;;;;;;;;;;;;;;17.36;38.97;100966.89;102030;1333;62106;-81
2022/12/25 02:31:58;;;;;;;;;;;;;;;17.36;38.90;100970.28;102139;1332;61967;-81
2022/12/25 02:34:31;;;;;;;;;;;;;;;17.35;38.87;100958.04;102219;1334;75374;-81
2022/12/25 02:36:57;;;;;;;;;;;;;;;17.35;38.86;100962.13;102164;1332;62036;-81
2022/12/25 02:42:13;;;;;;;;;;;;;;;17.35;38.99;100965.17;102165;1332;72652;-81
2022/12/25 03:06:41;;;;;;;;;;;;;;;17.34;38.99;100969.65;102038;1325;61988;-79
2022/12/25 03:06:55;;;;;;;;;;;;;;;17.33;38.82;100986.80;102154;1332;76361;-81
2022/12/25 03:12:12;;;;;;;;;;;;;;;17.33;39.00;100996.58;102202;1329;62086;-81
2022/12/25 03:17:21;;;;;;;;;;;;;;;17.33;38.94;101004.23;102173;1326;75235;-81
2022/12/25 03:27:59;;;;;;;;;;;;;;;17.32;38.97;101004.13;102203;1327;75226;-81
2022/12/25 03:33:34;;;;;;;;;;;;;;;17.32;38.96;101019.41;102186;1318;62121;-80
2022/12/25 03:36:04;;;;;;;;;;;;;;;17.32;38.92;101025.47;102120;1332;72625;-80
2022/12/25 04:36:34;;;;;;;;;;;;;;;17.27;38.85;101078.53;102147;1332;62019;-80
2022/12/25 04:39:00;;;;;;;;;;;;;;;17.27;39.02;101083.35;102068;1332;60107;-81
2022/12/25 04:41:25;;;;;;;;;;;;;;;17.27;38.91;101081.41;102065;1330;62194;-81
2022/12/25 04:43:51;;;;;;;;;;;;;;;17.26;38.87;101075.19;102092;1333;62226;-81
2022/12/25 04:46:16;;;;;;;;;;;;;;;17.27;38.91;101086.21;102121;1330;62098;-81
2022/12/25 04:48:41;;;;;;;;;;;;;;;17.26;38.95;101087.84;102131;1332;62125;-80
2022/12/25 04:51:10;;;;;;;;;;;;;;;17.26;38.98;101086.57;102077;1335;62170;-80
2022/12/25 04:53:35;;;;;;;;;;;;;;;17.26;38.85;101092.66;102123;1333;73556;-80
2022/12/25 04:56:01;;;;;;;;;;;;;;;17.25;38.94;101089.81;102156;1333;62103;-80
2022/12/25 04:58:26;;;;;;;;;;;;;;;17.26;38.94;101091.94;101991;1336;62230;-80
2022/12/25 05:00:51;;;;;;;;;;;;;;;17.25;38.95;101093.20;102088;1333;62189;-80
2022/12/25 05:03:17;;;;;;;;;;;;;;;17.25;38.88;101088.05;102102;1332;62232;-80
2022/12/25 05:05:42;;;;;;;;;;;;;;;17.25;38.93;101088.08;101991;1332;62154;-80
2022/12/25 05:08:08;;;;;;;;;;;;;;;17.24;38.92;101088.81;102019;1334;62251;-80
2022/12/25 05:10:33;;;;;;;;;;;;;;;17.24;38.92;101095.56;102047;1332;60927;-80
2022/12/25 05:12:59;;;;;;;;;;;;;;;17.24;38.98;101093.10;102086;1334;61868;-81
2022/12/25 05:15:24;;;;;;;;;;;;;;;17.24;38.95;101097.54;102030;1329;62129;-81
2022/12/25 05:17:49;;;;;;;;;;;;;;;17.25;39.00;101102.66;102102;1333;62135;-80
2022/12/25 05:20:15;;;;;;;;;;;;;;;17.24;38.87;101113.02;102113;1326;62248;-80
2022/12/25 05:22:41;;;;;;;;;;;;;;;17.24;38.82;101118.91;102211;1329;62277;-80
2022/12/25 05:25:06;;;;;;;;;;;;;;;17.24;38.87;101118.91;102198;1327;62149;-80
2022/12/25 05:27:32;;;;;;;;;;;;;;;17.23;38.99;101125.87;102196;1333;60870;-80
2022/12/25 05:29:57;;;;;;;;;;;;;;;17.23;38.91;101129.60;102197;1324;62227;-80
2022/12/25 05:32:22;;;;;;;;;;;;;;;17.23;38.98;101127.84;102191;1326;62056;-80
2022/12/25 05:34:48;;;;;;;;;;;;;;;17.23;39.00;101135.30;102226;1317;62121;-81
2022/12/25 05:37:13;;;;;;;;;;;;;;;17.23;38.87;101138.14;102178;1325;62088;-81
2022/12/25 05:39:38;;;;;;;;;;;;;;;17.23;38.94;101145.28;102209;1329;62010;-81
2022/12/25 05:42:04;;;;;;;;;;;;;;;17.23;38.92;101157.73;102135;1322;62219;-81
2022/12/25 05:44:29;;;;;;;;;;;;;;;17.23;39.01;101168.41;102107;1334;62127;-80
2022/12/25 05:46:55;;;;;;;;;;;;;;;17.22;38.96;101171.09;102168;1328;62095;-81
2022/12/25 05:49:20;;;;;;;;;;;;;;;17.22;38.89;101173.95;102180;1326;62328;-81
2022/12/25 05:51:45;;;;;;;;;;;;;;;17.22;38.97;101183.38;102109;1332;62103;-81
2022/12/25 05:54:11;;;;;;;;;;;;;;;17.22;38.86;101190.52;102135;1330;62112;-81
2022/12/25 05:56:37;;;;;;;;;;;;;;;17.22;39.04;101192.64;102104;1327;62156;-81
2022/12/25 05:59:02;;;;;;;;;;;;;;;17.22;38.88;101198.17;102088;1326;62136;-81
2022/12/25 06:01:28;;;;;;;;;;;;;;;17.21;39.08;101198.36;102152;1325;62267;-81
2022/12/25 06:03:53;;;;;;;;;;;;;;;17.21;38.88;101204.23;102071;1329;62197;-81
2022/12/25 06:06:19;;;;;;;;;;;;;;;17.21;38.96;101203.52;102118;1326;61064;-81
2022/12/25 06:08:44;;;;;;;;;;;;;;;17.21;38.81;101211.20;102118;1333;62136;-81
2022/12/25 06:11:09;;;;;;;;;;;;;;;17.20;38.97;101216.19;102134;1328;62150;-81
2022/12/25 06:13:35;;;;;;;;;;;;;;;17.21;38.96;101214.21;102121;1333;62070;-81
2022/12/25 06:16:04;;;;;;;;;;;;;;;17.21;38.90;101214.77;102052;1330;62221;-81
2022/12/25 06:18:30;;;;;;;;;;;;;;;17.20;38.96;101220.11;102096;1333;72621;-81
2022/12/25 06:20:55;;;;;;;;;;;;;;;17.20;38.94;101215.13;102074;1333;62134;-81
2022/12/25 06:23:21;;;;;;;;;;;;;;;17.20;39.04;101217.27;102030;1330;62101;-81
2022/12/25 06:25:46;;;;;;;;;;;;;;;17.20;39.03;101216.56;102087;1332;62213;-81
2022/12/25 06:28:12;;;;;;;;;;;;;;;17.20;38.87;101219.77;102086;1326;60825;-80
2022/12/25 06:30:37;;;;;;;;;;;;;;;17.20;38.93;101224.21;102032;1333;62282;-80
2022/12/25 06:33:02;;;;;;;;;;;;;;;17.20;38.97;101228.66;102074;1332;62176;-80
2022/12/25 06:35:28;;;;;;;;;;;;;;;17.20;38.93;101232.58;102065;1331;60864;-81
2022/12/25 06:37:53;;;;;;;;;;;;;;;17.20;38.92;101232.21;102078;1327;62207;-81
2022/12/25 06:40:19;;;;;;;;;;;;;;;17.20;38.97;101230.08;102109;1327;62125;-81
2022/12/25 06:42:44;;;;;;;;;;;;;;;17.20;38.94;101229.21;101989;1329;62129;-81
2022/12/25 06:45:10;;;;;;;;;;;;;;;17.20;38.95;101237.91;102013;1328;62088;-81
2022/12/25 06:47:36;;;;;;;;;;;;;;;17.20;38.92;101230.80;102158;1325;61938;-81
2022/12/25 06:50:01;;;;;;;;;;;;;;;17.20;38.93;101237.04;102108;1327;62166;-81
2022/12/25 06:52:27;;;;;;;;;;;;;;;17.20;38.93;101243.77;102061;1328;62175;-80
2022/12/25 06:54:52;;;;;;;;;;;;;;;17.20;38.94;101242.02;102049;1332;62130;-80
2022/12/25 06:57:18;;;;;;;;;;;;;;;17.20;38.88;101239.35;102060;1328;62137;-80
2022/12/25 06:59:43;;;;;;;;;;;;;;;17.19;38.91;101242.39;102090;1329;60921;-80
2022/12/25 07:02:14;;;;;;;;;;;;;;;17.19;38.90;101248.43;102088;1326;62196;-80
2022/12/25 07:04:40;;;;;;;;;;;;;;;17.19;38.93;101260.52;102137;1333;73724;-80
2022/12/25 07:07:05;;;;;;;;;;;;;;;17.20;38.91;101264.94;101984;1328;62240;-80
2022/12/25 07:09:31;;;;;;;;;;;;;;;17.20;38.93;101269.40;102048;1329;62090;-80
2022/12/25 07:12:04;;;;;;;;;;;;;;;17.20;38.95;101274.39;102110;1329;62192;-80
2022/12/25 07:14:29;;;;;;;;;;;;;;;17.20;38.95;101279.53;102017;1329;73650;-80
2022/12/25 07:16:54;;;;;;;;;;;;;;;17.20;38.90;101269.59;102086;1327;62109;-80
2022/12/25 07:19:20;;;;;;;;;;;;;;;17.19;38.91;101267.48;102156;1326;62167;-80
2022/12/25 07:21:46;;;;;;;;;;;;;;;17.20;38.88;101274.38;102080;1329;62135;-80
2022/12/25 07:24:11;;;;;;;;;;;;;;;17.19;38.94;101276.35;102123;1332;62092;-81
2022/12/25 07:26:37;;;;;;;;;;;;;;;17.20;38.91;101283.27;102017;1333;71165;-81
2022/12/25 07:29:02;;;;;;;;;;;;;;;17.19;39.00;101278.48;102037;1332;62179;-80
2022/12/25 07:31:27;;;;;;;;;;;;;;;17.20;38.90;101280.26;102047;1332;62180;-80
2022/12/25 07:33:53;;;;;;;;;;;;;;;17.20;38.96;101279.91;102186;1327;62104;-80
2022/12/25 07:36:18;;;;;;;;;;;;;;;17.19;38.92;101280.46;102179;1328;62435;-81
2022/12/25 07:38:47;;;;;;;;;;;;;;;17.19;39.11;101280.11;102223;1330;62192;-81
2022/12/25 07:41:12;;;;;;;;;;;;;;;17.19;38.97;101279.39;102139;1328;75465;-81
2022/12/25 07:43:38;;;;;;;;;;;;;;;17.19;38.94;101282.58;102175;1330;61643;-80
2022/12/25 07:46:04;;;;;;;;;;;;;;;17.20;38.90;101283.46;102136;1327;62140;-80
2022/12/25 07:48:29;;;;;;;;;;;;;;;17.20;38.94;101280.08;102113;1329;61894;-80
2022/12/25 07:50:56;;;;;;;;;;;;;;;17.19;38.98;101283.11;102133;1329;62128;-80
2022/12/25 07:53:21;;;;;;;;;;;;;;;17.20;38.95;101283.45;102137;1325;62124;-80
2022/12/25 07:55:46;;;;;;;;;;;;;;;17.20;38.93;101284.34;102123;1334;60932;-80
2022/12/25 07:58:12;;;;;;;;;;;;;;;17.20;38.95;101287.38;102153;1326;62216;-80
2022/12/25 08:00:39;;;;;;;;;;;;;;;17.19;39.01;101289.34;102122;1332;62081;-80
2022/12/25 08:03:05;;;;;;;;;;;;;;;17.20;38.90;101296.80;102184;1326;62214;-80
2022/12/25 08:05:31;;;;;;;;;;;;;;;17.20;38.96;101301.60;102130;1326;62280;-80
2022/12/25 08:07:56;;;;;;;;;;;;;;;17.20;38.91;101304.80;102119;1334;60872;-80
2022/12/25 08:10:22;;;;;;;;;;;;;;;17.20;38.98;101306.91;102167;1326;62122;-80
2022/12/25 08:12:47;;;;;;;;;;;;;;;17.20;38.95;101317.23;102208;1327;62871;-80
2022/12/25 08:15:13;;;;;;;;;;;;;;;17.20;38.85;101322.41;102156;1327;61372;-80
2022/12/25 08:17:39;;;;;;;;;;;;;;;17.20;39.01;101326.67;101746;1326;693514;-80
2022/12/25 08:20:05;;;;;;;;;;;;;;;17.20;38.92;101327.90;102174;1327;61960;-80
2022/12/25 08:22:30;;;;;;;;;;;;;;;17.20;38.83;101331.64;102159;1326;62119;-80
2022/12/25 08:24:56;;;;;;;;;;;;;;;17.20;38.88;101327.02;102194;1332;62171;-80
2022/12/25 08:27:22;;;;;;;;;;;;;;;17.20;38.96;101325.77;102162;1326;75312;-80
2022/12/25 08:29:47;;;;;;;;;;;;;;;17.20;38.95;101321.52;102175;1330;62243;-80
2022/12/25 08:32:13;;;;;;;;;;;;;;;17.20;38.99;101322.58;102176;1330;62075;-80
2022/12/25 08:34:38;;;;;;;;;;;;;;;17.20;38.94;101323.83;102152;1329;62122;-80
2022/12/25 08:37:03;;;;;;;;;;;;;;;17.20;38.90;101321.33;102318;1325;61125;-80
2022/12/25 08:39:29;;;;;;;;;;;;;;;17.20;38.95;101316.89;102224;1326;62192;-80
2022/12/25 08:41:54;;;;;;;;;;;;;;;17.20;38.98;101319.03;102170;1329;62553;-80
2022/12/25 08:44:43;;;;;;;;;;;;;;;17.19;38.93;101314.09;102218;1326;62085;-80
2022/12/25 08:47:08;;;;;;;;;;;;;;;17.19;38.98;101315.50;101882;1332;73576;-80
2022/12/25 08:49:34;;;;;;;;;;;;;;;17.20;38.96;101316.37;101892;1332;62155;-80
2022/12/25 08:51:59;;;;;;;;;;;;;;;17.20;38.95;101321.52;101862;1335;62227;-80
2022/12/25 08:54:25;;;;;;;;;;;;;;;17.19;38.99;101323.30;101835;1331;62314;-80
2022/12/25 08:56:50;;;;;;;;;;;;;;;17.19;39.02;101324.73;101856;1338;62191;-80
2022/12/25 08:59:15;;;;;;;;;;;;;;;17.19;38.98;101327.23;101789;1333;63977;-81
2022/12/25 09:01:41;;;;;;;;;;;;;;;17.19;38.92;101328.68;101830;1337;62098;-81
2022/12/25 09:04:06;;;;;;;;;;;;;;;17.19;38.90;101328.52;101842;1331;62134;-81
2022/12/25 09:06:32;;;;;;;;;;;;;;;17.19;38.93;101331.36;101875;1331;62105;-80
2022/12/25 09:08:57;;;;;;;;;;;;;;;17.19;38.92;101334.55;101836;1335;62094;-80
2022/12/25 09:11:23;;;;;;;;;;;;;;;17.18;38.92;101341.86;101800;1338;62289;-80
2022/12/25 09:13:48;;;;;;;;;;;;;;;17.19;38.94;101346.47;101828;1339;62422;-80
2022/12/25 09:16:15;;;;;;;;;;;;;;;17.19;38.99;101343.62;101807;1333;62584;-80
2022/12/25 09:18:40;;;;;;;;;;;;;;;17.19;38.98;101343.98;101821;1332;62176;-80
2022/12/25 09:21:07;;;;;;;;;;;;;;;17.19;38.97;101346.30;101898;1335;62204;-80
2022/12/25 09:23:33;;;;;;;;;;;;;;;17.19;38.94;101350.04;101915;1332;72493;-80
2022/12/25 09:25:59;;;;;;;;;;;;;;;17.18;39.01;101353.79;102134;1332;62136;-80
2022/12/25 09:28:24;;;;;;;;;;;;;;;17.19;38.93;101352.00;102127;1317;62104;-80
2022/12/25 09:30:50;;;;;;;;;;;;;;;17.18;39.01;101344.38;102186;1326;62121;-81
2022/12/25 09:33:15;;;;;;;;;;;;;;;17.18;39.00;101345.26;102209;1326;61376;-81
2022/12/25 09:35:41;;;;;;;;;;;;;;;17.18;39.03;101348.82;102186;1330;62224;-80
2022/12/25 09:38:06;;;;;;;;;;;;;;;17.18;38.96;101354.14;102207;1317;76869;-81
2022/12/25 09:40:32;;;;;;;;;;;;;;;17.18;38.97;101355.38;102161;1326;62240;-81
2022/12/25 09:42:57;;;;;;;;;;;;;;;17.18;39.09;101355.57;102183;1326;62263;-81
2022/12/25 09:45:28;;;;;;;;;;;;;;;17.18;39.03;101358.80;102108;1327;62125;-81
2022/12/25 09:47:55;;;;;;;;;;;;;;;17.18;39.03;101355.23;102181;1326;76306;-81
2022/12/25 09:50:36;;;;;;;;;;;;;;;17.18;38.95;101359.86;102189;1310;62170;-81
2022/12/25 09:53:06;;;;;;;;;;;;;;;17.18;39.04;101364.67;102189;1326;61948;-81
2022/12/25 09:55:33;;;;;;;;;;;;;;;17.17;39.03;101365.77;102185;1324;73482;-81
2022/12/25 09:58:00;;;;;;;;;;;;;;;17.18;39.08;101371.77;102174;1326;62078;-81
2022/12/25 10:00:32;;;;;;;;;;;;;;;17.18;39.00;101371.77;102156;1329;62127;-81
2022/12/25 10:02:57;;;;;;;;;;;;;;;17.18;39.02;101373.23;102168;1327;62210;-81
2022/12/25 10:05:33;;;;;;;;;;;;;;;17.18;39.05;101374.29;102200;1326;62212;-81
2022/12/25 10:08:02;;;;;;;;;;;;;;;17.17;39.12;101376.09;102147;1323;76275;-81
2022/12/25 10:10:31;;;;;;;;;;;;;;;17.17;39.10;101373.41;102192;1326;62126;-81
2022/12/25 10:13:09;;;;;;;;;;;;;;;17.17;39.04;101373.41;102223;1333;62005;-81
2022/12/25 10:15:34;;;;;;;;;;;;;;;17.17;39.10;101378.23;102231;1324;72675;-80
2022/12/25 10:18:15;;;;;;;;;;;;;;;17.18;39.05;101382.29;102217;1326;62080;-80
2022/12/25 10:20:56;;;;;;;;;;;;;;;17.17;39.10;101379.30;102143;1326;62096;-81
2022/12/25 10:23:25;;;;;;;;;;;;;;;17.18;39.14;101383.34;102058;1329;62141;-81
2022/12/25 10:25:50;;;;;;;;;;;;;;;17.17;39.06;101378.58;102178;1326;72528;-81
2022/12/25 10:28:27;;;;;;;;;;;;;;;17.17;39.05;101375.72;102172;1329;62080;-81
2022/12/25 10:30:52;;;;;;;;;;;;;;;17.17;39.15;101373.94;102270;1333;62068;-81
2022/12/25 10:33:18;;;;;;;;;;;;;;;17.18;39.15;101371.95;102166;1326;62102;-81
2022/12/25 10:35:43;;;;;;;;;;;;;;;17.18;39.18;101368.24;102190;1326;62124;-81
2022/12/25 10:38:13;;;;;;;;;;;;;;;17.18;39.12;101368.24;102119;1329;62118;-81
2022/12/25 10:40:44;;;;;;;;;;;;;;;17.17;39.12;101369.14;102191;1327;62080;-81
2022/12/25 10:43:11;;;;;;;;;;;;;;;17.18;39.01;101363.42;102254;1326;62105;-80
2022/12/25 10:45:46;;;;;;;;;;;;;;;17.17;39.13;101368.23;102179;1326;73395;-80
2022/12/25 10:48:22;;;;;;;;;;;;;;;17.18;39.12;101368.23;102145;1327;76254;-80
2022/12/25 10:50:48;;;;;;;;;;;;;;;17.18;39.04;101365.36;102184;1329;62254;-80
2022/12/25 10:53:17;;;;;;;;;;;;;;;17.18;39.10;101363.05;102177;1331;60800;-80
2022/12/25 10:55:52;;;;;;;;;;;;;;;17.18;39.14;101366.08;102138;1327;72654;-80
2022/12/25 10:58:18;;;;;;;;;;;;;;;17.18;39.16;101363.78;102159;1326;75372;-80
2022/12/25 11:00:49;;;;;;;;;;;;;;;17.18;39.07;101364.14;102164;1325;62234;-80
2022/12/25 11:03:22;;;;;;;;;;;;;;;17.18;39.10;101368.02;102148;1326;61876;-80
2022/12/25 11:05:49;;;;;;;;;;;;;;;17.19;39.19;101366.93;102138;1329;72528;-80
2022/12/25 11:08:17;;;;;;;;;;;;;;;17.19;39.07;101362.13;102154;1326;76317;-80
2022/12/25 11:10:42;;;;;;;;;;;;;;;17.19;39.21;101371.39;102088;1329;62156;-80
2022/12/25 11:13:34;;;;;;;;;;;;;;;17.19;39.16;101373.86;102145;1320;62229;-80
2022/12/25 11:16:12;;;;;;;;;;;;;;;17.19;39.13;101374.76;102152;1332;72549;-80
2022/12/25 11:18:48;;;;;;;;;;;;;;;17.19;39.06;101376.73;102229;1327;75144;-80
2022/12/25 11:21:13;;;;;;;;;;;;;;;17.19;39.12;101378.65;102135;1329;62132;-81
2022/12/25 11:23:42;;;;;;;;;;;;;;;17.19;39.16;101384.37;102189;1326;62121;-81
2022/12/25 11:26:09;;;;;;;;;;;;;;;17.19;39.26;101383.83;102131;1333;72620;-81
2022/12/25 11:28:36;;;;;;;;;;;;;;;17.19;39.15;101383.29;102063;1327;74056;-81
2022/12/25 11:31:05;;;;;;;;;;;;;;;17.19;39.15;101383.83;102153;1329;62006;-81
2022/12/25 11:33:32;;;;;;;;;;;;;;;17.18;39.15;101381.71;102194;1326;62155;-81
2022/12/25 11:35:57;;;;;;;;;;;;;;;17.19;39.34;101384.19;102164;1326;71629;-81
2022/12/25 11:38:23;;;;;;;;;;;;;;;17.19;39.24;101383.66;102123;1332;62222;-81
2022/12/25 11:40:51;;;;;;;;;;;;;;;17.19;39.23;101383.48;102161;1327;62079;-81
2022/12/25 11:43:19;;;;;;;;;;;;;;;17.19;39.22;101379.03;102178;1332;62147;-81
2022/12/25 11:45:45;;;;;;;;;;;;;;;17.19;39.23;101378.48;102195;1327;72514;-81
2022/12/25 11:48:22;;;;;;;;;;;;;;;17.19;39.29;101379.38;102148;1325;76332;-81
2022/12/25 11:50:52;;;;;;;;;;;;;;;17.19;39.24;101385.23;102180;1332;62442;-81
2022/12/25 11:53:24;;;;;;;;;;;;;;;17.18;39.33;101385.61;102193;1333;62003;-81
2022/12/25 11:55:53;;;;;;;;;;;;;;;17.19;39.24;101386.83;102158;1326;73540;-81
2022/12/25 11:58:20;;;;;;;;;;;;;;;17.19;39.20;101383.29;102125;1329;75366;-81
2022/12/25 12:00:45;;;;;;;;;;;;;;;17.19;39.20;101383.64;102209;1325;62004;-81
2022/12/25 12:03:19;;;;;;;;;;;;;;;17.19;39.25;101391.11;102098;1329;62195;-81
2022/12/25 12:06:00;;;;;;;;;;;;;;;17.19;39.28;101395.55;102205;1329;73642;-81
2022/12/25 12:08:26;;;;;;;;;;;;;;;17.19;39.20;101389.86;102144;1329;76344;-81
2022/12/25 12:11:16;;;;;;;;;;;;;;;17.19;39.22;101388.09;102154;1331;62126;-81
2022/12/25 12:14:04;;;;;;;;;;;;;;;17.19;39.37;101392.17;102240;1326;62004;-81
2022/12/25 12:16:30;;;;;;;;;;;;;;;17.20;39.17;101395.35;102184;1326;72627;-81
2022/12/25 12:18:56;;;;;;;;;;;;;;;17.19;39.32;101397.84;102149;1326;62195;-81
2022/12/25 12:21:22;;;;;;;;;;;;;;;17.19;39.28;101397.16;102187;1323;62162;-81
2022/12/25 12:23:48;;;;;;;;;;;;;;;17.19;39.35;101396.60;102201;1332;62165;-81
2022/12/25 12:26:20;;;;;;;;;;;;;;;17.20;39.34;101400.33;102242;1332;62192;-81
2022/12/25 12:28:46;;;;;;;;;;;;;;;17.20;39.28;101399.60;102199;1329;76383;-81
2022/12/25 12:31:11;;;;;;;;;;;;;;;17.20;39.28;101399.98;102194;1326;61054;-81
2022/12/25 12:33:38;;;;;;;;;;;;;;;17.19;39.22;101401.22;102152;1329;62166;-81
2022/12/25 12:36:04;;;;;;;;;;;;;;;17.20;39.29;101404.92;102179;1326;62215;-81
2022/12/25 12:38:29;;;;;;;;;;;;;;;17.20;39.40;101405.65;102160;1326;62116;-81
2022/12/25 12:40:56;;;;;;;;;;;;;;;17.20;39.37;101406.36;102202;1329;62151;-81
2022/12/25 12:43:27;;;;;;;;;;;;;;;17.20;39.32;101407.60;102173;1328;62089;-81
2022/12/25 12:45:56;;;;;;;;;;;;;;;17.20;39.29;101415.60;102180;1326;72507;-81
2022/12/25 12:48:25;;;;;;;;;;;;;;;17.20;39.23;101414.01;102054;1326;74199;-81
2022/12/25 12:51:00;;;;;;;;;;;;;;;17.20;39.36;101419.52;102177;1330;62081;-81
2022/12/25 12:53:27;;;;;;;;;;;;;;;17.21;39.32;101418.96;102154;1326;62010;-81
2022/12/25 12:55:52;;;;;;;;;;;;;;;17.20;39.22;101419.34;102169;1326;71582;-81
2022/12/25 12:58:26;;;;;;;;;;;;;;;17.20;39.40;101419.52;102143;1326;62142;-81
2022/12/25 13:00:55;;;;;;;;;;;;;;;17.20;39.41;101422.55;102225;1316;62125;-81
2022/12/25 13:03:24;;;;;;;;;;;;;;;17.20;39.32;101420.76;102129;1329;62133;-81
2022/12/25 13:05:53;;;;;;;;;;;;;;;17.20;39.31;101426.62;102155;1333;72644;-81
2022/12/25 13:08:28;;;;;;;;;;;;;;;17.20;39.29;101429.28;102139;1328;76620;-81
2022/12/25 13:11:12;;;;;;;;;;;;;;;17.20;39.42;101433.04;102217;1316;62082;-81
2022/12/25 13:13:39;;;;;;;;;;;;;;;17.20;39.32;101441.75;102232;1324;62041;-80
2022/12/25 13:16:04;;;;;;;;;;;;;;;17.21;39.30;101446.72;102166;1326;61999;-82
2022/12/25 13:18:30;;;;;;;;;;;;;;;17.20;39.43;101443.52;102097;1332;62118;-80
2022/12/25 13:20:56;;;;;;;;;;;;;;;17.21;39.37;101444.94;102182;1333;62980;-80
2022/12/25 13:23:29;;;;;;;;;;;;;;;17.20;39.33;101448.52;102109;1326;62134;-80
2022/12/25 13:25:55;;;;;;;;;;;;;;;17.20;39.43;101454.91;102149;1333;73594;-80
2022/12/25 13:28:47;;;;;;;;;;;;;;;17.20;39.40;101463.98;102076;1328;62133;-80
2022/12/25 13:31:12;;;;;;;;;;;;;;;17.20;39.52;101462.39;102125;1326;62121;-81
2022/12/25 13:33:38;;;;;;;;;;;;;;;17.20;39.45;101464.52;102173;1325;62184;-80
2022/12/25 13:36:04;;;;;;;;;;;;;;;17.20;39.44;101470.20;102058;1328;60088;-80
2022/12/25 13:38:30;;;;;;;;;;;;;;;17.20;39.45;101473.08;102126;1330;62020;-80
2022/12/25 13:43:40;;;;;;;;;;;;;;;17.20;39.51;101468.26;102143;1326;62091;-80
2022/12/25 13:46:05;;;;;;;;;;;;;;;17.21;39.49;101471.09;102215;1316;62153;-80
2022/12/25 13:48:31;;;;;;;;;;;;;;;17.20;39.47;101473.60;102252;1329;62087;-80
2022/12/25 13:50:57;;;;;;;;;;;;;;;17.20;39.51;101478.91;102272;1329;62309;-80
2022/12/25 13:53:22;;;;;;;;;;;;;;;17.20;39.46;101480.16;102148;1329;62079;-80
2022/12/25 13:55:51;;;;;;;;;;;;;;;17.21;39.58;101480.86;102232;1330;62336;-80
2022/12/25 13:58:43;;;;;;;;;;;;;;;17.20;39.46;101489.24;102173;1319;73382;-80
2022/12/25 14:01:10;;;;;;;;;;;;;;;17.21;39.62;101487.98;102217;1326;75227;-80
2022/12/25 14:03:38;;;;;;;;;;;;;;;17.20;39.58;101487.11;102163;1333;61291;-80
2022/12/25 14:06:05;;;;;;;;;;;;;;;17.21;39.58;101491.89;102127;1329;62038;-80
2022/12/25 14:08:33;;;;;;;;;;;;;;;17.21;39.59;101494.91;102084;1329;72883;-80
2022/12/25 14:11:02;;;;;;;;;;;;;;;17.21;39.54;101496.70;102139;1333;76563;-80